Bowler, Wisconsin
Current Conditions -  °F | °C
As of 12:55 PM on Thursday 30 Oct 2014 (Local Time) from KCLI Reporting Station
Overcast Overcast  
Wind Chill: 38°   Ceiling: 8500
Heat Index: 43°   Visibility: 10mi
Dew Point: 32°   Wind: 8mph
Humidity: 66%   Direction: 280°W
Pressure: 30.06"   Gusts: NA
Location:  44.86°N, 88.98°W
Report Text: KCLI 301755Z AUTO 28007KT 10SM OVC085 06/00 A3006 RMK AO2
Loading
Personal Weather Stations






























Interactive Weather Map
Tropical Storm Tracking
New forecast layout! Learn more

10-Day Weather Forecast

Advertisements
Track Severe Weather on mobile